createdAt,value
2022-10-28T00:01:22.660Z,29.15
2022-10-28T00:03:56.544Z,25.95
2022-10-28T00:06:29.990Z,25.02
2022-10-28T00:08:57.183Z,23.27
2022-10-28T00:11:33.196Z,22.95
2022-10-28T00:14:02.777Z,37.33
2022-10-28T00:16:32.976Z,33.22
2022-10-28T00:19:01.476Z,26.85
2022-10-28T00:21:34.299Z,28.30
2022-10-28T00:24:01.414Z,26.92
2022-10-28T00:26:31.278Z,25.95
2022-10-28T00:29:07.232Z,22.83
2022-10-28T00:31:35.602Z,18.15
2022-10-28T00:34:05.389Z,17.38
2022-10-28T00:36:36.052Z,17.90
2022-10-28T00:39:08.121Z,15.90
2022-10-28T00:41:41.199Z,20.88
2022-10-28T00:44:45.495Z,17.50
2022-10-28T00:47:21.357Z,21.30
2022-10-28T00:49:50.988Z,19.02
2022-10-28T00:52:22.466Z,27.77
2022-10-28T00:54:51.771Z,21.58
2022-10-28T00:57:23.204Z,26.35
2022-10-28T00:59:52.511Z,34.30
2022-10-28T01:02:20.241Z,50.78
2022-10-28T01:04:47.872Z,31.38
2022-10-28T01:07:17.096Z,37.60
2022-10-28T01:09:44.672Z,57.00
2022-10-28T01:12:26.540Z,21.75
2022-10-28T01:15:08.855Z,20.85
2022-10-28T01:17:52.921Z,21.67
2022-10-28T01:20:53.635Z,18.23
2022-10-28T01:23:36.119Z,17.10
2022-10-28T01:26:38.043Z,15.60
2022-10-28T01:29:19.243Z,18.42
2022-10-28T01:32:07.411Z,14.15
2022-10-28T01:34:51.093Z,14.20
2022-10-28T01:37:58.851Z,14.32
2022-10-28T01:40:38.120Z,13.38
2022-10-28T01:43:13.460Z,13.65
2022-10-28T01:45:59.423Z,12.88
2022-10-28T01:51:11.136Z,16.20
2022-10-28T01:53:41.915Z,12.90
2022-10-28T01:56:14.343Z,17.00
2022-10-28T01:58:43.015Z,16.08
2022-10-28T02:01:11.059Z,13.60
2022-10-28T02:03:38.074Z,16.70
2022-10-28T02:06:13.016Z,14.30
2022-10-28T02:08:42.903Z,21.17
2022-10-28T02:11:21.632Z,14.52
2022-10-28T02:13:56.371Z,18.88
2022-10-28T02:16:50.187Z,10.77
2022-10-28T02:19:27.133Z,9.65
2022-10-28T02:21:59.727Z,10.25
2022-10-28T02:24:36.731Z,8.35
2022-10-28T02:27:07.782Z,16.52
2022-10-28T02:29:45.714Z,11.15
2022-10-28T02:32:18.491Z,12.55
2022-10-28T02:34:48.671Z,10.80
2022-10-28T02:37:31.395Z,13.68
2022-10-28T02:40:02.250Z,10.38
2022-10-28T02:42:33.513Z,20.38
2022-10-28T02:45:11.900Z,11.55
2022-10-28T02:47:43.946Z,10.80
2022-10-28T02:50:17.422Z,12.05
2022-10-28T02:52:48.204Z,19.48
2022-10-28T02:55:15.439Z,13.13
2022-10-28T02:57:48.149Z,10.88
2022-10-28T03:00:23.142Z,17.90
2022-10-28T03:02:49.882Z,9.52
2022-10-28T03:05:17.814Z,9.82
2022-10-28T03:07:44.567Z,10.82
2022-10-28T03:10:11.315Z,11.75
2022-10-28T03:12:38.119Z,8.95
2022-10-28T03:15:05.902Z,9.45
2022-10-28T03:17:33.111Z,7.65
2022-10-28T03:19:59.971Z,8.73
2022-10-28T03:22:26.731Z,10.30
2022-10-28T03:24:53.467Z,11.75
2022-10-28T03:27:20.251Z,13.20
2022-10-28T03:29:46.978Z,7.50
2022-10-28T03:32:14.119Z,9.30
2022-10-28T03:34:41.372Z,8.13
2022-10-28T03:37:08.180Z,7.78
2022-10-28T03:39:34.951Z,9.38
2022-10-28T03:42:02.098Z,11.45
2022-10-28T03:44:29.266Z,7.13
2022-10-28T03:46:56.037Z,12.35
2022-10-28T03:49:23.288Z,9.95
2022-10-28T03:51:49.992Z,8.18
2022-10-28T03:54:16.835Z,13.25
2022-10-28T03:56:43.599Z,12.68
2022-10-28T03:59:11.757Z,9.57
2022-10-28T04:01:40.135Z,36.20
2022-10-28T04:04:06.987Z,24.15
2022-10-28T04:06:34.123Z,19.50
2022-10-28T04:09:00.949Z,13.27
2022-10-28T04:11:27.726Z,11.25
2022-10-28T04:13:54.451Z,10.07
2022-10-28T04:16:23.624Z,10.38
2022-10-28T04:18:50.647Z,15.98
2022-10-28T04:21:18.363Z,8.80
2022-10-28T04:23:45.123Z,16.85
2022-10-28T04:26:12.331Z,10.38
2022-10-28T04:28:39.106Z,8.80
2022-10-28T04:31:05.873Z,12.63
2022-10-28T04:33:32.767Z,14.50
2022-10-28T04:35:59.492Z,13.70
2022-10-28T04:38:26.372Z,14.80
2022-10-28T04:40:53.113Z,15.90
2022-10-28T04:43:20.379Z,17.05
2022-10-28T04:45:47.400Z,15.43
2022-10-28T04:48:14.186Z,15.13
2022-10-28T04:50:41.743Z,14.75
2022-10-28T04:53:08.515Z,14.85
2022-10-28T04:55:35.282Z,16.20
2022-10-28T04:58:02.215Z,19.17
2022-10-28T05:00:30.167Z,21.50
2022-10-28T05:02:57.306Z,11.43
2022-10-28T05:05:24.535Z,14.98
2022-10-28T05:07:51.543Z,11.18
2022-10-28T05:10:19.022Z,11.85
2022-10-28T05:12:46.379Z,10.43
2022-10-28T05:15:15.065Z,9.70
2022-10-28T05:17:46.217Z,11.35
2022-10-28T05:20:15.162Z,7.45
2022-10-28T05:22:53.793Z,9.73
2022-10-28T05:25:21.822Z,11.88
2022-10-28T05:27:49.098Z,10.45
2022-10-28T05:30:16.368Z,8.50
2022-10-28T05:32:43.936Z,9.82
2022-10-28T05:35:11.184Z,10.60
2022-10-28T05:37:38.123Z,10.10
2022-10-28T05:40:06.672Z,12.05
2022-10-28T05:42:33.874Z,13.65
2022-10-28T05:45:03.548Z,11.77
2022-10-28T05:47:30.608Z,10.77
2022-10-28T05:49:57.371Z,11.32
2022-10-28T05:52:24.521Z,11.98
2022-10-28T05:54:51.734Z,8.55
2022-10-28T05:57:18.494Z,8.65
2022-10-28T05:59:45.230Z,9.07
2022-10-28T06:02:15.680Z,13.15
2022-10-28T06:04:42.930Z,9.07
2022-10-28T06:07:09.831Z,10.95
2022-10-28T06:09:36.698Z,14.27
2022-10-28T06:12:02.074Z,10.48
2022-10-28T06:14:29.301Z,12.20
2022-10-28T06:16:56.092Z,10.27
2022-10-28T06:19:22.815Z,17.35
2022-10-28T06:21:49.610Z,11.48
2022-10-28T06:24:16.330Z,15.02
2022-10-28T06:26:43.141Z,21.80
2022-10-28T06:29:10.602Z,24.83
2022-10-28T06:31:41.960Z,16.58
2022-10-28T06:34:10.737Z,12.18
2022-10-28T06:36:38.110Z,12.43
2022-10-28T06:39:05.683Z,14.40
2022-10-28T06:41:33.551Z,13.25
2022-10-28T06:44:00.638Z,19.85
2022-10-28T06:46:27.706Z,16.65
2022-10-28T06:48:56.907Z,15.05
2022-10-28T06:51:24.404Z,15.68
2022-10-28T06:53:52.130Z,18.58
2022-10-28T06:56:19.046Z,20.63
2022-10-28T06:58:53.685Z,21.13
2022-10-28T07:01:22.083Z,19.52
2022-10-28T07:03:49.013Z,20.45
2022-10-28T07:06:16.886Z,15.35
2022-10-28T07:08:43.646Z,15.95
2022-10-28T07:11:10.414Z,15.82
2022-10-28T07:13:37.184Z,11.85
2022-10-28T07:16:05.234Z,19.73
2022-10-28T07:18:32.004Z,19.52
2022-10-28T07:21:01.341Z,18.83
2022-10-28T07:23:28.805Z,20.55
2022-10-28T07:25:56.653Z,25.40
2022-10-28T07:28:24.895Z,20.35
2022-10-28T07:30:52.254Z,18.95
2022-10-28T07:33:19.391Z,17.65
2022-10-28T07:35:46.201Z,21.00
2022-10-28T07:38:12.996Z,28.83
2022-10-28T07:40:40.264Z,18.13
2022-10-28T07:43:07.069Z,19.45
2022-10-28T07:45:35.236Z,19.73
2022-10-28T07:48:02.669Z,29.80
2022-10-28T07:50:29.853Z,23.60
2022-10-28T07:52:57.320Z,26.55
2022-10-28T07:55:24.146Z,21.15
2022-10-28T07:57:51.073Z,26.15
2022-10-28T08:00:18.474Z,23.75
2022-10-28T08:02:45.262Z,26.70
2022-10-28T08:05:12.049Z,24.98
2022-10-28T08:07:39.135Z,26.70
2022-10-28T08:10:07.120Z,21.05
2022-10-28T08:12:34.046Z,25.92
2022-10-28T08:15:02.599Z,23.20
2022-10-28T08:17:30.085Z,25.15
2022-10-28T08:19:56.796Z,22.45
2022-10-28T08:22:24.670Z,27.00
2022-10-28T08:24:51.437Z,33.25
2022-10-28T08:27:18.144Z,22.63
2022-10-28T08:29:45.287Z,26.67
2022-10-28T08:32:12.051Z,21.45
2022-10-28T08:34:42.420Z,22.92
2022-10-28T08:37:10.584Z,27.27
2022-10-28T08:39:37.588Z,28.35
2022-10-28T08:42:18.443Z,27.70
2022-10-28T08:45:19.876Z,30.27
2022-10-28T08:48:11.011Z,31.90
2022-10-28T08:50:52.009Z,26.50
2022-10-28T08:53:21.716Z,24.50
2022-10-28T08:55:52.045Z,23.67
2022-10-28T08:58:30.876Z,31.58
2022-10-28T09:01:01.962Z,25.58
2022-10-28T09:03:38.995Z,27.92
2022-10-28T09:06:08.996Z,33.88
2022-10-28T09:08:39.329Z,28.98
2022-10-28T09:11:37.079Z,31.30
2022-10-28T09:14:21.864Z,22.92
2022-10-28T09:17:06.692Z,30.40
2022-10-28T09:19:52.913Z,32.65
2022-10-28T09:22:40.502Z,23.90
2022-10-28T09:25:41.291Z,23.63
2022-10-28T09:28:32.927Z,23.67
2022-10-28T09:31:12.173Z,19.98
2022-10-28T09:33:51.395Z,17.20
2022-10-28T09:36:24.550Z,21.65
2022-10-28T09:38:56.133Z,20.52
2022-10-28T09:41:27.241Z,17.92
2022-10-28T09:43:57.152Z,14.77
2022-10-28T09:46:28.355Z,14.30
2022-10-28T09:49:34.176Z,18.98
2022-10-28T09:52:19.086Z,14.85
2022-10-28T09:54:50.652Z,19.17
2022-10-28T09:57:18.076Z,18.42
2022-10-28T09:59:46.020Z,18.35
2022-10-28T10:02:33.512Z,18.85
2022-10-28T10:05:02.269Z,18.42
2022-10-28T10:07:43.219Z,11.88
2022-10-28T10:10:56.291Z,20.60
2022-10-28T10:13:28.799Z,15.15
2022-10-28T10:16:02.000Z,14.60
2022-10-28T10:18:32.987Z,14.88
2022-10-28T10:21:00.426Z,12.20
2022-10-28T10:23:32.895Z,10.30
2022-10-28T10:26:12.241Z,11.30
2022-10-28T10:28:48.642Z,9.55
2022-10-28T10:31:29.684Z,9.48
2022-10-28T10:33:57.938Z,6.82
2022-10-28T10:36:31.523Z,9.75
2022-10-28T10:39:00.730Z,11.30
2022-10-28T10:41:40.130Z,9.38
2022-10-28T10:44:22.764Z,9.35
2022-10-28T10:47:13.409Z,7.25
2022-10-28T10:49:40.168Z,11.50
2022-10-28T10:52:16.169Z,11.40
2022-10-28T10:54:56.245Z,8.88
2022-10-28T10:57:24.498Z,8.57
2022-10-28T10:59:54.161Z,6.93
2022-10-28T11:02:29.079Z,7.65
2022-10-28T11:05:01.112Z,6.80
2022-10-28T11:07:29.418Z,8.30
2022-10-28T11:09:56.711Z,7.85
2022-10-28T11:12:36.822Z,8.55
2022-10-28T11:15:33.233Z,11.63
2022-10-28T11:18:01.589Z,7.20
2022-10-28T11:20:58.378Z,8.00
2022-10-28T11:23:30.466Z,7.95
2022-10-28T11:26:05.981Z,10.07
2022-10-28T11:29:03.688Z,17.10
2022-10-28T11:31:44.741Z,8.63
2022-10-28T11:34:20.449Z,11.98
2022-10-28T11:37:09.646Z,11.95
2022-10-28T11:40:05.328Z,7.60
2022-10-28T11:43:11.179Z,9.75
2022-10-28T11:45:51.242Z,7.88
2022-10-28T11:48:25.894Z,11.10
2022-10-28T11:51:09.208Z,9.43
2022-10-28T11:53:51.361Z,7.00
2022-10-28T11:56:38.335Z,9.02
2022-10-28T11:59:38.351Z,7.55
2022-10-28T12:02:19.208Z,9.35
2022-10-28T12:05:04.050Z,7.65
2022-10-28T12:07:52.167Z,11.98
2022-10-28T12:10:44.229Z,8.73
2022-10-28T12:13:16.594Z,8.38
2022-10-28T12:16:08.331Z,6.63
2022-10-28T12:18:37.846Z,11.30
2022-10-28T12:21:23.457Z,7.47
2022-10-28T12:23:50.845Z,7.57
2022-10-28T12:26:19.934Z,8.05
2022-10-28T12:28:55.440Z,8.82
2022-10-28T12:31:34.497Z,7.20
2022-10-28T12:34:09.036Z,7.43
2022-10-28T12:36:55.428Z,10.88
2022-10-28T12:39:31.504Z,11.30
2022-10-28T12:42:09.667Z,9.98
2022-10-28T12:44:38.028Z,7.10
2022-10-28T12:47:13.725Z,7.50
2022-10-28T12:49:57.101Z,13.10
2022-10-28T12:53:01.258Z,8.00
2022-10-28T12:55:31.045Z,10.55
2022-10-28T12:58:15.625Z,9.90
2022-10-28T13:00:46.984Z,7.65
2022-10-28T13:03:15.534Z,8.27
2022-10-28T13:05:50.907Z,9.23
2022-10-28T13:08:41.823Z,9.27
2022-10-28T13:11:29.804Z,7.20
2022-10-28T13:14:05.805Z,7.93
2022-10-28T13:16:40.640Z,9.82
2022-10-28T13:19:31.365Z,7.63
2022-10-28T13:22:14.136Z,8.25
2022-10-28T13:24:50.213Z,10.80
2022-10-28T13:27:18.020Z,11.07
2022-10-28T13:29:51.538Z,8.80
2022-10-28T13:32:37.495Z,8.23
2022-10-28T13:35:13.701Z,9.75
2022-10-28T13:37:41.441Z,8.48
2022-10-28T13:40:23.573Z,7.28
2022-10-28T13:42:53.359Z,7.43
2022-10-28T13:45:49.664Z,9.95
2022-10-28T13:48:41.225Z,9.80
2022-10-28T13:51:10.825Z,12.10
2022-10-28T13:53:46.789Z,9.65
2022-10-28T13:56:45.921Z,10.05
2022-10-28T13:59:13.064Z,8.80
2022-10-28T14:02:40.678Z,13.20
2022-10-28T14:05:07.697Z,14.48
2022-10-28T14:07:38.237Z,13.23
2022-10-28T14:10:19.115Z,14.20
2022-10-28T14:12:52.524Z,11.98
2022-10-28T14:15:35.344Z,11.52
2022-10-28T14:18:41.431Z,14.13
2022-10-28T14:21:03.511Z,15.65
2022-10-28T14:23:30.963Z,14.45
2022-10-28T14:26:05.815Z,14.32
2022-10-28T14:28:32.560Z,14.27
2022-10-28T14:31:15.600Z,10.52
2022-10-28T14:33:42.692Z,10.48
2022-10-28T14:36:19.345Z,10.38
2022-10-28T14:39:04.520Z,14.77
2022-10-28T14:41:42.958Z,9.45
2022-10-28T14:44:21.713Z,12.95
2022-10-28T14:47:10.363Z,13.20
2022-10-28T14:49:38.926Z,10.77
2022-10-28T14:52:16.087Z,15.88
2022-10-28T14:54:52.265Z,13.93
2022-10-28T14:57:22.846Z,18.83
2022-10-28T14:59:51.182Z,16.90
2022-10-28T15:02:22.986Z,13.85
2022-10-28T15:05:04.170Z,13.05
2022-10-28T15:07:37.895Z,13.85
2022-10-28T15:10:28.091Z,17.33
2022-10-28T15:12:57.219Z,14.32
2022-10-28T15:15:25.932Z,17.38
2022-10-28T15:17:57.867Z,15.20
2022-10-28T15:20:28.376Z,16.80
2022-10-28T15:23:11.155Z,15.95
2022-10-28T15:25:38.394Z,18.25
2022-10-28T15:28:05.746Z,18.92
2022-10-28T15:30:34.770Z,16.95
2022-10-28T15:33:29.509Z,13.95
2022-10-28T15:36:25.900Z,21.67
2022-10-28T15:39:07.276Z,21.10
2022-10-28T15:41:40.351Z,19.25
2022-10-28T15:44:22.705Z,19.60
2022-10-28T15:46:50.728Z,20.85
2022-10-28T15:49:38.853Z,19.85
2022-10-28T15:52:17.813Z,21.33
2022-10-28T15:55:35.860Z,19.70
2022-10-28T15:58:19.400Z,30.27
2022-10-28T16:00:57.791Z,28.83
2022-10-28T16:03:40.821Z,31.15
2022-10-28T16:06:26.617Z,27.02
2022-10-28T16:09:05.753Z,46.35
2022-10-28T16:11:36.478Z,33.75
2022-10-28T16:14:28.266Z,35.40
2022-10-28T16:16:56.878Z,34.63
2022-10-28T16:19:29.645Z,36.65
2022-10-28T16:21:56.543Z,32.58
2022-10-28T16:24:23.265Z,33.38
2022-10-28T16:26:50.013Z,33.67
2022-10-28T16:29:16.760Z,34.05
2022-10-28T16:31:47.462Z,34.15
2022-10-28T16:34:15.458Z,45.70
2022-10-28T16:36:42.942Z,44.75
2022-10-28T16:39:13.302Z,34.80
2022-10-28T16:41:40.995Z,42.63
2022-10-28T16:44:27.550Z,43.03
2022-10-28T16:46:54.452Z,35.28
2022-10-28T16:49:21.207Z,64.28
2022-10-28T16:51:53.860Z,80.47
2022-10-28T16:54:20.791Z,54.50
2022-10-28T16:56:48.024Z,40.47
2022-10-28T16:59:15.578Z,33.63
2022-10-28T17:01:42.352Z,38.63
2022-10-28T17:04:09.393Z,33.15
2022-10-28T17:06:36.560Z,32.90
2022-10-28T17:09:04.089Z,26.63
2022-10-28T17:14:03.238Z,34.78
2022-10-28T17:16:29.954Z,51.65
2022-10-28T17:18:56.641Z,48.38
2022-10-28T17:21:23.428Z,50.70
2022-10-28T17:23:50.613Z,45.17
2022-10-28T17:26:17.901Z,45.35
2022-10-28T17:28:45.002Z,52.70
2022-10-28T17:31:11.833Z,43.60
2022-10-28T17:33:38.559Z,58.05
2022-10-28T17:36:07.916Z,53.00
2022-10-28T17:38:35.453Z,45.20
2022-10-28T17:41:02.646Z,42.03
2022-10-28T17:43:29.412Z,58.67
2022-10-28T17:46:08.176Z,44.33
2022-10-28T17:48:35.057Z,66.32
2022-10-28T17:51:02.405Z,49.22
2022-10-28T17:53:29.167Z,43.88
2022-10-28T17:56:00.591Z,50.80
2022-10-28T17:58:27.628Z,46.65
2022-10-28T18:00:58.822Z,49.38
2022-10-28T18:03:26.667Z,58.72
2022-10-28T18:05:53.886Z,51.25
2022-10-28T18:08:21.010Z,57.65
2022-10-28T18:10:56.423Z,48.70
2022-10-28T18:13:32.051Z,55.22
2022-10-28T18:16:12.897Z,56.78
2022-10-28T18:18:42.640Z,38.83
2022-10-28T18:21:13.724Z,57.47
2022-10-28T18:23:41.407Z,47.38
2022-10-28T18:26:12.016Z,48.35
2022-10-28T18:28:39.987Z,45.22
2022-10-28T18:31:10.216Z,43.72
2022-10-28T18:33:37.165Z,46.92
2022-10-28T18:36:13.498Z,56.53
2022-10-28T18:38:40.422Z,48.92
2022-10-28T18:41:18.769Z,41.30
2022-10-28T18:43:46.090Z,48.72
2022-10-28T18:46:14.732Z,43.05
2022-10-28T18:48:41.506Z,37.50
2022-10-28T18:51:11.323Z,45.00
2022-10-28T18:53:54.811Z,51.47
2022-10-28T18:56:24.041Z,56.22
2022-10-28T18:58:52.401Z,51.17
2022-10-28T19:01:27.621Z,54.17
2022-10-28T19:03:57.438Z,56.50
2022-10-28T19:06:26.011Z,42.40
2022-10-28T19:08:54.865Z,38.85
2022-10-28T19:11:23.174Z,50.28
2022-10-28T19:13:49.962Z,44.08
2022-10-28T19:16:17.631Z,60.47
2022-10-28T19:18:44.500Z,47.38
2022-10-28T19:21:29.410Z,59.22
2022-10-28T19:24:29.104Z,49.97
2022-10-28T19:26:56.399Z,56.33
2022-10-28T19:32:03.882Z,51.63
2022-10-28T19:34:32.519Z,49.20
2022-10-28T19:36:59.357Z,57.55
2022-10-28T19:39:26.105Z,63.10
2022-10-28T19:41:52.838Z,52.83
2022-10-28T19:44:19.937Z,43.58
2022-10-28T19:46:47.076Z,53.42
2022-10-28T19:49:15.513Z,51.13
2022-10-28T19:51:42.360Z,54.03
2022-10-28T19:54:13.477Z,52.40
2022-10-28T19:56:44.332Z,45.20
2022-10-28T19:59:13.857Z,65.15
2022-10-28T20:01:41.361Z,126.32
2022-10-28T20:04:10.147Z,55.55
2022-10-28T20:06:39.312Z,64.78
2022-10-28T20:09:07.087Z,44.40
2022-10-28T20:11:37.606Z,53.90
2022-10-28T20:14:20.690Z,46.67
2022-10-28T20:16:48.852Z,55.08
2022-10-28T20:19:21.716Z,47.65
2022-10-28T20:21:50.018Z,46.63
2022-10-28T20:24:17.377Z,46.70
2022-10-28T20:26:44.093Z,44.10
2022-10-28T20:29:10.856Z,48.30
2022-10-28T20:31:39.036Z,51.33
2022-10-28T20:34:06.445Z,47.45
2022-10-28T20:36:33.116Z,67.93
2022-10-28T20:39:00.972Z,56.58
2022-10-28T20:41:33.005Z,55.75
2022-10-28T20:44:00.465Z,45.35
2022-10-28T20:46:27.207Z,58.03
2022-10-28T20:48:54.423Z,44.50
2022-10-28T20:51:22.734Z,54.05
2022-10-28T20:53:50.424Z,56.03
2022-10-28T20:56:20.014Z,60.92
2022-10-28T20:58:47.545Z,63.58
2022-10-28T21:01:17.738Z,51.03
2022-10-28T21:03:48.127Z,46.42
2022-10-28T21:06:17.404Z,68.50
2022-10-28T21:08:44.629Z,43.58
2022-10-28T21:11:13.719Z,53.85
2022-10-28T21:13:41.468Z,58.13
2022-10-28T21:16:11.525Z,47.40
2022-10-28T21:18:39.511Z,41.28
2022-10-28T21:21:07.038Z,45.42
2022-10-28T21:23:34.227Z,47.50
2022-10-28T21:26:03.210Z,61.53
2022-10-28T21:28:31.055Z,46.30
2022-10-28T21:31:10.110Z,48.58
2022-10-28T21:33:38.173Z,40.55
2022-10-28T21:36:10.715Z,49.35
2022-10-28T21:38:43.732Z,106.10
2022-10-28T21:41:12.330Z,40.45
2022-10-28T21:43:41.861Z,33.97
2022-10-28T21:46:09.256Z,43.42
2022-10-28T21:48:37.345Z,31.80
2022-10-28T21:51:09.951Z,38.92
2022-10-28T21:53:42.604Z,36.17
2022-10-28T21:56:17.115Z,35.85
2022-10-28T21:58:45.803Z,35.17
2022-10-28T22:01:18.587Z,37.10
2022-10-28T22:03:45.542Z,39.42
2022-10-28T22:06:12.705Z,31.77
2022-10-28T22:08:45.142Z,35.78
2022-10-28T22:11:17.759Z,41.03
2022-10-28T22:13:45.317Z,38.50
2022-10-28T22:16:14.454Z,59.42
2022-10-28T22:18:45.040Z,37.35
2022-10-28T22:21:18.357Z,38.13
2022-10-28T22:23:45.543Z,35.40
2022-10-28T22:26:15.925Z,34.50
2022-10-28T22:28:43.080Z,58.17
2022-10-28T22:31:13.106Z,41.55
2022-10-28T22:33:40.958Z,50.28
2022-10-28T22:36:10.922Z,46.40
2022-10-28T22:38:38.145Z,35.63
2022-10-28T22:41:07.672Z,35.97
2022-10-28T22:43:34.856Z,31.58
2022-10-28T22:46:02.559Z,32.88
2022-10-28T22:48:32.924Z,37.60
2022-10-28T22:51:00.383Z,29.00
2022-10-28T22:53:28.026Z,34.40
2022-10-28T22:55:55.575Z,34.25
2022-10-28T22:58:23.544Z,33.97
2022-10-28T23:00:51.187Z,32.95
2022-10-28T23:03:18.362Z,28.35
2022-10-28T23:05:45.139Z,28.60
2022-10-28T23:08:15.589Z,30.58
2022-10-28T23:10:42.508Z,34.67
2022-10-28T23:13:13.547Z,30.88
2022-10-28T23:15:40.377Z,33.33
2022-10-28T23:18:07.541Z,34.40
2022-10-28T23:20:35.386Z,32.28
2022-10-28T23:23:02.136Z,28.85
2022-10-28T23:25:29.021Z,27.90
2022-10-28T23:27:56.170Z,25.63
2022-10-28T23:30:23.128Z,26.85
2022-10-28T23:32:50.271Z,30.17
2022-10-28T23:35:17.530Z,24.88
2022-10-28T23:37:44.302Z,22.85
2022-10-28T23:40:11.497Z,24.05
2022-10-28T23:42:38.663Z,22.33
2022-10-28T23:45:06.676Z,20.80
2022-10-28T23:47:33.429Z,25.35
2022-10-28T23:50:00.157Z,23.55
2022-10-28T23:52:26.885Z,23.38
2022-10-28T23:54:53.584Z,23.25
2022-10-28T23:57:20.335Z,25.20
2022-10-28T23:59:47.485Z,23.73
